Details From KSTS - Charles M Schulz Sonoma Co
To KTRK - Truckee Tahoe
Flight Number -
Tags Generated
Created
Modified
Stats Distance 134 nm / 249 km
Max Altitude 0 ft / 0 m
Waypoints 2
Social Downloads 3
Likes 0
Share VATSIM

Download

Looking for another format? Having issues loading an existing format? Contact us
Advertisement - Login to hide

Notes

Generated

Route

KSTS KTRK

ID Type Via Altitude Latitude Longitude Leg Dist Tot Dist Heading (true) Name
O KSTS APT - 0 ft / 0 m 38.50316˚ -122.82096˚ - 0 nm - -
O KTRK APT - 0 ft / 0 m 39.31452˚ -120.13997˚ 134 nm 134 nm 68° / 70° -

Altitude Profile

Advertisement - Login to hide

KSTS

Details ICAO KSTS (STS)
Name Charles M. Schulz - Sonoma Co
Region United States
Timezone America/Los_Angeles (UTC-8.0)
Stats Elevation 128 ft / 39 m (AMSL)
Location 38.508979° -122.812922°
Runways 2
Magnetic Variation 13.725° E

METAR

KSTS 112253Z 17004KT 10SM SCT250 18/04 A3025 RMK AO2 SLP237 T01780044

Decode

TAF

KSTS 111736Z 1118/1218 00000KT P6SM SCT250 FM112300 VRB03KT P6SM SCT250 FM120200 00000KT P6SM SCT250 FM120700 00000KT 2SM BR SKC FM121000 00000KT 1SM BR VV002 TEMPO 1210/1214 1/4SM FG VV001 FM121400 00000KT 3SM BR SKC FM121500 00000KT P6SM SKC

Decode

Departure Runways

ID Width Length Bearing (true) Bearing (mag) Surface Threshold Offset Overrun Length
01 98 ft / 30 m 5,008 ft / 1,527 m 29.05° 15.33° Asphalt 0 ft / 0 m 0 ft / 0 m
14 151 ft / 46 m 5,122 ft / 1,561 m 157.28° 143.56° Asphalt 0 ft / 0 m 200 ft / 61 m
19 98 ft / 30 m 5,008 ft / 1,527 m 209.05° 195.33° Asphalt 0 ft / 0 m 0 ft / 0 m
32 151 ft / 46 m 5,122 ft / 1,561 m 337.28° 323.56° Asphalt 0 ft / 0 m 200 ft / 61 m

KTRK

Details ICAO KTRK (TKF)
Name Truckee Tahoe
Region United States
Timezone America/Los_Angeles (UTC-8.0)
Stats Elevation 5,900 ft / 1,798 m (AMSL)
Location 39.320042° -120.138942°
Runways 2
Magnetic Variation 13.439° E

METAR

KTRK 112150Z 00000KT 10SM SCT210 07/M07 A3047

Decode

TAF

TAF KTRK 111720Z 1118/1218 VRB02KT P6SM SCT250

Decode

Destination Runways

ID Width Length Bearing (true) Bearing (mag) Surface Threshold Offset Overrun Length
01 75 ft / 23 m 4,653 ft / 1,418 m 29.88° 16.44° Asphalt 0 ft / 0 m 0 ft / 0 m
10 100 ft / 30 m 6,990 ft / 2,131 m 120.08° 106.64° Asphalt 0 ft / 0 m 0 ft / 0 m
19 75 ft / 23 m 4,653 ft / 1,418 m 209.88° 196.44° Asphalt 115 ft / 35 m 0 ft / 0 m
28 100 ft / 30 m 6,990 ft / 2,131 m 300.09° 286.65° Asphalt 0 ft / 0 m 0 ft / 0 m